Richland Center, WI

9:10 PM CDT on May 05, 2015 (GMT -0500)
KWIRICHL5 | | Change Station
CLOSE
Current Station
Personal Weather Station
Location: Richland Center, WI
Elevation: 741 ft
Nearby Weather Stations

Elev 741 ft 43.33 °N, 90.39 °W | Updated 37 seconds ago

Rain
Rain
55.0 °F
Feels Like 55.0 °F
N
0.0
Wind Variable Wind from ESE
Gusts 6.0 mph

Today
High -- | Low -- °F
--% Chance of Precip.
Yesterday
High -- | Low -- °F
Precip. -- in
5:49 AM 8:07 PM
Waning Gibbous, 96% visible
Pressure 30.19 in
Visibility 6.0 miles
Clouds Scattered Clouds 7500 ft
Overcast 9500 ft
Dew Point 52 °F
Humidity 91%
Rainfall 0.27 in
Snow Depth Not available.
UV 0 out of 12
Pollen 8.70 out of 12
Air Quality Not available.
Flu Activity Local Activity
METAR KLNR 060156Z AUTO 09008KT 6SM -RA BR SCT075 OVC095 13/11 A3019 RMK AO2 RAB35 SLP222 P0003 T01280111

More Conditions Fewer Conditions

Pressure 30.19 in
Visibility 6.0 miles
Clouds Scattered Clouds 7500 ft
Overcast 9500 ft
Dew Point 52 °F
Humidity 91%
Rainfall 0.27 in
Snow Depth Not available.
UV 0 out of 12
Pollen 8.70 out of 12
Air Quality Not available.
Flu Activity Local Activity
METAR KLNR 060156Z AUTO 09008KT 6SM -RA BR SCT075 OVC095 13/11 A3019 RMK AO2 RAB35 SLP222 P0003 T01280111

More Conditions Fewer Conditions

10-Day Weather Forecast

Almanac

Astronomy

May. 05, 2015 Rise Set
Actual Time
Civil Twilight
Nautical Twilight
Astronomical Twilight
Moon
Length of Visible Light
Length of Day
Tomorrow will be .
, % of the Moon is Illuminated

Today's Extremes

State Highs State Lows

Community

WunderPhotos

Upload Photos

1,819,041 photos uploaded!

WunderBlogs® & News

Nearby

Air Quality

  Air Quality AQ Index Pollutant
Not available.

Snow Depth

Station Depth Elevation

Earthquake Activity

City Distance Mag. Time & Date
Minimum magnitude displayed is 2.5.

Coastal Water Temperatures

Place Temperature

Stations

Nearby Weather Stations

Station Location Temp. Windchill Dew Point Humidity Wind Precip. Elev Updated Type